Time;durP1;ratioP1;P1;durP2;ratioP2;P2;SDS_P1;SDS_P2;PMS_P1;PMS_P2;Temp;Humidity;BMP_temperature;BMP_pressure;BME280_temperature;BME280_humidity;BME280_pressure;Samples;Min_cycle;Max_cycle;Signal;HPM_P1;HPM_P2
2023/03/05 00:01:41;;;;;;;5.90;4.17;;;1.40;57.10;;;;;;4916845;29;20289;-72
2023/03/05 00:04:15;;;;;;;6.67;3.90;;;1.30;58.40;;;;;;4917152;29;20212;-72
2023/03/05 00:06:44;;;;;;;4.03;2.93;;;1.40;60.10;;;;;;4916577;29;20745;-72
2023/03/05 00:09:13;;;;;;;3.40;2.80;;;1.40;63.00;;;;;;4916492;29;20262;-73
2023/03/05 00:11:42;;;;;;;8.97;3.17;;;1.60;63.20;;;;;;4916802;29;20206;-73
2023/03/05 00:14:11;;;;;;;3.27;2.67;;;1.70;64.00;;;;;;4916572;29;20222;-73
2023/03/05 00:16:40;;;;;;;4.30;2.70;;;1.80;65.40;;;;;;4916342;29;20254;-73
2023/03/05 00:19:12;;;;;;;3.83;2.93;;;1.70;65.80;;;;;;4916481;29;20206;-73
2023/03/05 00:21:41;;;;;;;4.50;2.53;;;1.70;68.70;;;;;;4916617;29;20209;-72
2023/03/05 00:24:13;;;;;;;4.50;2.47;;;1.50;71.40;;;;;;4916366;29;20606;-74
2023/03/05 00:26:42;;;;;;;4.73;2.43;;;1.50;74.40;;;;;;4915999;29;20749;-73
2023/03/05 00:29:17;;;;;;;3.23;2.20;;;1.50;75.20;;;;;;4916419;29;20214;-72
2023/03/05 00:31:46;;;;;;;2.50;2.10;;;1.50;76.20;;;;;;4916329;29;20736;-73
2023/03/05 00:34:19;;;;;;;3.77;2.50;;;1.50;77.50;;;;;;4916464;29;20544;-72
2023/03/05 00:36:49;;;;;;;3.03;2.67;;;1.40;79.30;;;;;;4915685;29;20217;-74
2023/03/05 00:39:20;;;;;;;4.53;3.17;;;1.30;81.50;;;;;;4899329;29;20691;-72
2023/03/05 00:41:49;;;;;;;5.10;3.10;;;1.20;82.80;;;;;;4914813;29;20207;-73
2023/03/05 00:44:18;;;;;;;13.90;3.33;;;1.30;83.50;;;;;;4916424;29;20218;-72
2023/03/05 00:46:47;;;;;;;4.00;2.90;;;1.10;86.60;;;;;;4916177;29;20696;-74
2023/03/05 00:49:17;;;;;;;8.43;3.27;;;1.00;86.30;;;;;;4914855;29;20760;-72
2023/03/05 00:51:46;;;;;;;10.30;4.53;;;1.00;82.30;;;;;;4916159;29;20199;-72
2023/03/05 00:54:15;;;;;;;7.23;3.93;;;1.10;79.60;;;;;;4916347;29;20195;-73
2023/03/05 00:56:44;;;;;;;6.47;3.80;;;1.10;74.70;;;;;;4914658;29;20667;-73
2023/03/05 00:59:13;;;;;;;6.43;3.73;;;1.10;72.60;;;;;;4916086;29;20673;-73
2023/03/05 01:01:42;;;;;;;6.23;3.53;;;1.20;71.10;;;;;;4916063;29;20690;-72
2023/03/05 01:04:10;;;;;;;6.23;3.50;;;1.10;70.40;;;;;;4916162;29;20206;-73
2023/03/05 01:06:43;;;;;;;7.27;3.80;;;1.00;70.90;;;;;;4914805;29;20202;-71
2023/03/05 01:09:14;;;;;;;9.13;3.67;;;0.90;70.10;;;;;;4915997;29;20213;-73
2023/03/05 01:11:43;;;;;;;7.33;3.57;;;0.70;69.60;;;;;;4914525;29;20629;-73
2023/03/05 01:14:12;;;;;;;6.93;3.87;;;0.70;69.50;;;;;;4898883;29;20265;-75
2023/03/05 01:16:41;;;;;;;6.60;4.20;;;0.70;68.70;;;;;;4914744;29;20210;-71
2023/03/05 01:19:12;;;;;;;6.03;3.67;;;0.70;68.10;;;;;;4914851;29;20214;-74
2023/03/05 01:21:42;;;;;;;5.07;3.83;;;0.70;67.90;;;;;;4915811;29;20202;-71
2023/03/05 01:24:11;;;;;;;6.77;3.77;;;0.60;67.60;;;;;;4915579;29;20238;-73
2023/03/05 01:26:40;;;;;;;3.90;3.20;;;0.60;68.20;;;;;;4914251;29;20257;-73
2023/03/05 01:29:09;;;;;;;5.43;4.13;;;0.50;68.30;;;;;;4898724;29;20227;-74
2023/03/05 01:31:38;;;;;;;5.90;3.77;;;0.40;69.50;;;;;;4915926;29;20206;-74
2023/03/05 01:34:06;;;;;;;6.10;3.67;;;0.50;69.90;;;;;;4914481;29;20199;-73
2023/03/05 01:36:35;;;;;;;5.43;3.40;;;0.50;69.90;;;;;;4915494;29;20621;-73
2023/03/05 01:39:06;;;;;;;9.03;3.70;;;0.50;70.60;;;;;;4915698;29;20273;-72
2023/03/05 01:41:35;;;;;;;10.37;3.97;;;0.40;72.30;;;;;;4915467;29;20576;-73
2023/03/05 01:44:04;;;;;;;5.80;3.53;;;0.40;73.70;;;;;;4915644;29;20207;-72
2023/03/05 01:46:34;;;;;;;7.70;3.47;;;0.40;74.20;;;;;;4915765;29;20210;-71
2023/03/05 01:49:23;;;;;;;4.93;3.33;;;0.30;76.00;;;;;;4917874;29;20295;-71
2023/03/05 01:52:03;;;;;;;8.17;3.97;;;0.30;77.20;;;;;;4918873;29;20203;-72
2023/03/05 01:54:35;;;;;;;5.20;3.20;;;0.40;77.10;;;;;;4917736;29;20700;-72
2023/03/05 01:57:09;;;;;;;9.23;3.47;;;0.40;78.00;;;;;;4918563;29;20214;-72
2023/03/05 01:59:41;;;;;;;5.10;3.07;;;0.30;78.90;;;;;;4901778;29;20628;-71
2023/03/05 02:02:10;;;;;;;5.17;2.90;;;0.30;79.70;;;;;;4918901;29;20684;-72
2023/03/05 02:04:45;;;;;;;5.00;3.47;;;0.30;80.60;;;;;;4918849;29;20246;-72
2023/03/05 02:07:15;;;;;;;5.50;2.93;;;0.40;79.50;;;;;;4918706;29;20206;-73
2023/03/05 02:09:46;;;;;;;3.40;2.97;;;0.40;79.30;;;;;;4917379;29;20289;-73
2023/03/05 02:12:15;;;;;;;5.93;2.80;;;0.40;78.50;;;;;;4918474;29;20669;-73
2023/03/05 02:14:48;;;;;;;3.13;2.63;;;0.50;78.50;;;;;;4917193;29;20214;-72
2023/03/05 02:17:17;;;;;;;5.37;3.13;;;0.40;78.10;;;;;;4918466;29;20215;-71
2023/03/05 02:19:54;;;;;;;5.83;3.13;;;0.60;77.40;;;;;;4917187;29;20198;-73
2023/03/05 02:22:25;;;;;;;3.37;2.60;;;0.70;76.60;;;;;;4918411;29;20202;-72
2023/03/05 02:24:54;;;;;;;3.53;2.53;;;0.70;75.50;;;;;;4918289;29;20282;-73
2023/03/05 02:27:33;;;;;;;4.40;2.93;;;0.70;75.60;;;;;;4900961;29;20548;-72
2023/03/05 02:30:03;;;;;;;4.70;2.93;;;0.70;75.90;;;;;;4918273;29;20232;-72
2023/03/05 02:32:32;;;;;;;4.73;3.50;;;0.60;77.70;;;;;;4918230;29;20230;-73
2023/03/05 02:35:01;;;;;;;4.57;2.83;;;0.60;78.00;;;;;;4901284;29;20206;-70
2023/03/05 02:37:31;;;;;;;4.67;2.70;;;0.60;79.10;;;;;;4917083;29;20221;-73
2023/03/05 02:40:00;;;;;;;5.53;3.23;;;0.60;79.00;;;;;;4901318;29;20216;-72
2023/03/05 02:42:32;;;;;;;5.60;3.10;;;0.80;77.80;;;;;;4916724;29;20230;-73
2023/03/05 02:45:02;;;;;;;6.03;2.93;;;0.90;76.60;;;;;;4901055;29;20269;-73
2023/03/05 02:47:31;;;;;;;3.20;2.70;;;1.00;76.00;;;;;;4917945;29;20258;-71
2023/03/05 02:50:00;;;;;;;4.10;3.00;;;1.10;75.60;;;;;;4916594;29;20224;-73
2023/03/05 02:52:32;;;;;;;4.90;3.20;;;1.10;76.50;;;;;;4916700;29;20582;-73
2023/03/05 02:55:01;;;;;;;7.07;2.90;;;1.20;75.40;;;;;;4916439;29;20211;-73
2023/03/05 02:57:31;;;;;;;8.10;2.90;;;1.00;75.10;;;;;;4916267;29;20221;-70
2023/03/05 03:00:00;;;;;;;3.83;2.97;;;0.90;76.20;;;;;;4917201;29;20669;-73
2023/03/05 03:02:29;;;;;;;5.80;3.13;;;0.90;77.20;;;;;;4916404;29;20236;-73
2023/03/05 03:04:58;;;;;;;4.80;2.67;;;1.00;76.90;;;;;;4917682;29;20218;-72
2023/03/05 03:07:27;;;;;;;6.37;2.80;;;1.00;76.50;;;;;;4917775;29;20211;-73
2023/03/05 03:09:57;;;;;;;3.30;2.33;;;1.10;75.50;;;;;;4917759;29;20696;-73
2023/03/05 03:12:27;;;;;;;4.10;2.80;;;1.20;74.90;;;;;;4858959;29;20224;-73
2023/03/05 03:14:56;;;;;;;6.40;3.17;;;1.20;74.90;;;;;;4859288;29;20238;-72
2023/03/05 03:17:24;;;;;;;5.13;3.07;;;1.20;75.60;;;;;;4858549;29;20246;-74
2023/03/05 03:19:53;;;;;;;3.57;3.13;;;1.20;75.80;;;;;;4859231;29;20277;-72
2023/03/05 03:22:22;;;;;;;5.37;3.67;;;1.20;76.10;;;;;;4859062;29;20212;-73
2023/03/05 03:24:51;;;;;;;3.43;2.90;;;1.10;76.80;;;;;;4858709;29;20839;-71
2023/03/05 03:27:21;;;;;;;6.97;3.03;;;1.20;76.50;;;;;;4858603;29;20639;-72
2023/03/05 03:29:50;;;;;;;2.90;2.63;;;1.20;75.60;;;;;;4859089;29;20250;-73
2023/03/05 03:32:19;;;;;;;3.63;2.70;;;1.30;74.40;;;;;;4858873;29;20758;-72
2023/03/05 03:34:48;;;;;;;4.00;2.47;;;1.20;73.80;;;;;;4858928;29;20679;-72
2023/03/05 03:37:17;;;;;;;5.33;2.70;;;1.20;74.10;;;;;;4891137;29;20298;-73
2023/03/05 03:39:45;;;;;;;4.90;2.53;;;1.20;74.70;;;;;;4917053;29;20232;-72
2023/03/05 03:42:17;;;;;;;3.93;3.07;;;1.30;75.50;;;;;;4916894;29;20608;-74
2023/03/05 03:44:47;;;;;;;6.10;2.83;;;1.30;74.50;;;;;;4916821;29;20234;-73
2023/03/05 03:47:16;;;;;;;7.60;3.07;;;1.30;72.00;;;;;;4917187;29;20214;-73
2023/03/05 03:49:45;;;;;;;9.07;3.20;;;1.30;73.60;;;;;;4916702;29;20218;-73
2023/03/05 03:52:14;;;;;;;5.27;3.03;;;1.40;75.50;;;;;;4916787;29;20244;-73
2023/03/05 03:54:43;;;;;;;4.40;2.77;;;1.40;73.60;;;;;;4916998;29;20613;-73
2023/03/05 03:57:11;;;;;;;4.63;2.80;;;1.40;71.60;;;;;;4916338;29;20666;-73
2023/03/05 03:59:40;;;;;;;5.13;2.87;;;1.40;69.20;;;;;;4916767;29;20214;-72
2023/03/05 04:02:11;;;;;;;3.90;2.90;;;1.30;68.40;;;;;;4916599;29;20210;-72
2023/03/05 04:04:39;;;;;;;3.70;3.00;;;1.20;67.90;;;;;;4916735;29;20624;-71
2023/03/05 04:07:09;;;;;;;4.17;3.27;;;1.20;68.00;;;;;;4916722;29;20230;-72
2023/03/05 04:09:38;;;;;;;5.13;2.67;;;1.20;67.30;;;;;;4916601;29;20202;-73
2023/03/05 04:12:07;;;;;;;3.13;2.80;;;1.10;67.50;;;;;;4916797;29;20684;-73
2023/03/05 04:14:36;;;;;;;5.03;2.67;;;1.10;67.50;;;;;;4917022;29;20222;-73
2023/03/05 04:17:05;;;;;;;4.10;2.60;;;1.10;67.90;;;;;;4916453;29;20211;-72
2023/03/05 04:19:35;;;;;;;2.77;2.57;;;1.00;68.30;;;;;;4916430;29;20254;-72
2023/03/05 04:22:04;;;;;;;7.33;2.83;;;0.90;68.30;;;;;;4916505;29;20229;-73
2023/03/05 04:24:33;;;;;;;2.57;2.37;;;0.90;68.50;;;;;;4916340;29;20254;-73
2023/03/05 04:27:02;;;;;;;2.90;2.20;;;0.90;68.20;;;;;;4916016;29;20306;-73
2023/03/05 04:29:30;;;;;;;2.93;2.43;;;0.90;67.30;;;;;;4916337;29;20743;-73
2023/03/05 04:31:59;;;;;;;3.77;2.30;;;0.90;67.10;;;;;;4916272;29;20259;-73
2023/03/05 04:34:28;;;;;;;2.43;2.23;;;0.80;65.90;;;;;;4916357;29;20781;-73
2023/03/05 04:36:59;;;;;;;3.50;2.10;;;0.80;66.00;;;;;;4916368;29;20193;-73
2023/03/05 04:39:27;;;;;;;3.10;2.13;;;0.80;64.60;;;;;;4916336;29;20230;-73
2023/03/05 04:41:56;;;;;;;2.40;2.00;;;0.70;64.50;;;;;;4916121;29;20210;-72
2023/03/05 04:44:25;;;;;;;2.77;2.30;;;0.70;63.10;;;;;;4916322;29;20282;-72
2023/03/05 04:46:54;;;;;;;2.90;2.27;;;0.60;63.30;;;;;;4916281;29;20198;-70
2023/03/05 04:49:23;;;;;;;4.20;2.43;;;0.60;64.10;;;;;;4916190;29;20198;-71
2023/03/05 04:51:51;;;;;;;5.67;2.33;;;0.60;64.50;;;;;;4915894;29;20222;-72
2023/03/05 04:54:22;;;;;;;3.93;2.47;;;0.60;64.10;;;;;;4916248;29;20202;-71
2023/03/05 04:56:50;;;;;;;2.73;2.53;;;0.50;63.40;;;;;;4916000;29;20218;-71
2023/03/05 04:59:19;;;;;;;3.87;2.37;;;0.50;64.20;;;;;;4916005;29;20199;-71
2023/03/05 05:01:48;;;;;;;3.57;2.30;;;0.50;64.50;;;;;;4915933;29;20190;-70
2023/03/05 05:04:17;;;;;;;4.87;2.43;;;0.50;64.40;;;;;;4916134;29;20202;-71
2023/03/05 05:06:46;;;;;;;8.10;2.80;;;0.40;65.00;;;;;;4915989;29;20230;-70
2023/03/05 05:09:15;;;;;;;3.93;2.50;;;0.40;65.70;;;;;;4916246;29;20198;-72
2023/03/05 05:11:45;;;;;;;2.47;2.27;;;0.30;65.90;;;;;;4915816;29;20233;-72
2023/03/05 05:14:14;;;;;;;2.40;2.20;;;0.20;66.20;;;;;;4916005;29;20206;-72
2023/03/05 05:16:43;;;;;;;2.73;2.53;;;0.20;66.40;;;;;;4915980;29;20293;-71
2023/03/05 05:19:12;;;;;;;5.63;2.60;;;0.30;66.60;;;;;;4915860;29;20226;-72
2023/03/05 05:21:41;;;;;;;2.47;2.27;;;0.30;66.20;;;;;;4916240;29;20206;-71
2023/03/05 05:24:10;;;;;;;2.97;2.43;;;0.30;66.00;;;;;;4902338;29;20603;-71
2023/03/05 05:26:39;;;;;;;4.40;2.60;;;0.30;66.10;;;;;;4919288;29;20253;-71
2023/03/05 05:29:09;;;;;;;5.13;2.63;;;0.30;65.20;;;;;;4919885;29;20202;-71
2023/03/05 05:31:38;;;;;;;3.13;2.67;;;0.30;65.10;;;;;;4919260;29;20226;-72
2023/03/05 05:34:07;;;;;;;4.53;2.73;;;0.30;64.60;;;;;;4919311;29;20203;-72
2023/03/05 05:36:35;;;;;;;2.90;2.40;;;0.30;64.00;;;;;;4919324;29;20203;-71
2023/03/05 05:39:05;;;;;;;5.00;2.70;;;0.30;63.60;;;;;;4919463;29;20206;-71
2023/03/05 05:41:34;;;;;;;4.83;2.27;;;0.30;63.50;;;;;;4919229;29;20230;-70
2023/03/05 05:44:03;;;;;;;3.50;2.20;;;0.30;63.20;;;;;;4919181;29;20289;-71
2023/03/05 05:46:33;;;;;;;5.77;3.20;;;0.30;63.30;;;;;;4919136;29;20593;-71
2023/03/05 05:49:02;;;;;;;5.03;2.40;;;0.30;62.80;;;;;;4919109;29;20297;-71
2023/03/05 05:51:31;;;;;;;3.60;2.70;;;0.30;62.80;;;;;;4919011;29;20693;-72
2023/03/05 05:53:59;;;;;;;3.50;2.60;;;0.30;62.50;;;;;;4919118;29;20206;-71
2023/03/05 05:56:28;;;;;;;2.67;2.47;;;0.40;62.00;;;;;;4918717;29;20261;-71
2023/03/05 05:58:57;;;;;;;4.33;2.20;;;0.30;61.00;;;;;;4918894;29;20301;-70
2023/03/05 06:01:29;;;;;;;4.70;2.50;;;0.30;60.50;;;;;;4918785;29;20210;-70
2023/03/05 06:03:59;;;;;;;3.33;2.83;;;0.30;60.30;;;;;;4918857;29;20254;-71
2023/03/05 06:06:29;;;;;;;3.20;2.40;;;0.30;60.10;;;;;;4918748;29;20687;-71
2023/03/05 06:08:58;;;;;;;5.37;2.77;;;0.40;59.80;;;;;;4918859;29;20206;-70
2023/03/05 06:11:27;;;;;;;5.60;3.17;;;0.40;59.40;;;;;;4918739;29;20222;-71
2023/03/05 06:13:56;;;;;;;3.30;2.67;;;0.50;59.40;;;;;;4918587;29;20621;-71
2023/03/05 06:16:25;;;;;;;3.50;2.83;;;0.40;58.60;;;;;;4918714;29;20733;-70
2023/03/05 06:18:54;;;;;;;5.07;2.77;;;0.40;58.30;;;;;;4918736;29;20207;-71
2023/03/05 06:21:24;;;;;;;6.57;2.80;;;0.40;58.20;;;;;;4918697;29;20609;-72
2023/03/05 06:23:53;;;;;;;5.77;3.60;;;0.60;58.00;;;;;;4918257;29;20245;-70
2023/03/05 06:26:23;;;;;;;3.60;3.00;;;0.70;57.70;;;;;;4918215;29;20214;-71
2023/03/05 06:28:52;;;;;;;4.97;2.90;;;0.80;57.50;;;;;;4918458;29;20227;-71
2023/03/05 06:31:24;;;;;;;6.00;3.43;;;0.90;56.70;;;;;;4918461;29;20566;-70
2023/03/05 06:33:54;;;;;;;7.60;3.07;;;1.10;56.40;;;;;;4917039;29;20293;-70
2023/03/05 06:36:26;;;;;;;4.90;3.50;;;1.20;56.10;;;;;;4918097;29;20673;-71
2023/03/05 06:38:55;;;;;;;4.73;3.23;;;1.20;55.30;;;;;;4918245;29;20207;-71
2023/03/05 06:41:26;;;;;;;5.63;3.13;;;1.20;54.90;;;;;;4918249;29;20275;-71
2023/03/05 06:43:56;;;;;;;5.43;2.77;;;1.30;54.50;;;;;;4918140;29;20203;-71
2023/03/05 06:46:27;;;;;;;3.70;2.97;;;1.30;54.00;;;;;;4918084;29;20269;-71
2023/03/05 06:48:57;;;;;;;5.90;3.50;;;1.30;54.00;;;;;;4918216;29;20235;-71
2023/03/05 06:51:28;;;;;;;4.77;3.07;;;1.40;54.00;;;;;;4918213;29;20639;-72
2023/03/05 06:54:01;;;;;;;4.30;2.83;;;1.60;53.50;;;;;;4917787;29;20198;-71
2023/03/05 06:56:30;;;;;;;4.17;2.70;;;1.70;53.10;;;;;;4917765;29;20207;-70
2023/03/05 06:58:59;;;;;;;4.67;2.97;;;1.80;52.50;;;;;;4918118;29;20274;-71
2023/03/05 07:01:28;;;;;;;3.87;2.90;;;1.90;52.40;;;;;;4917883;29;21033;-71
2023/03/05 07:03:59;;;;;;;4.87;3.00;;;2.00;51.90;;;;;;4917773;29;20250;-72
2023/03/05 07:06:32;;;;;;;4.20;3.00;;;2.10;51.90;;;;;;4917800;29;20212;-71
2023/03/05 07:09:02;;;;;;;4.13;2.97;;;2.30;51.50;;;;;;4917739;29;20221;-70
2023/03/05 07:11:31;;;;;;;8.63;3.00;;;2.20;51.10;;;;;;4917485;29;20219;-71
2023/03/05 07:14:01;;;;;;;4.87;2.97;;;2.20;50.80;;;;;;4917582;29;20203;-71
2023/03/05 07:16:32;;;;;;;4.47;3.33;;;2.30;50.70;;;;;;4917491;29;20263;-69
2023/03/05 07:19:03;;;;;;;8.40;3.20;;;2.50;50.60;;;;;;4917381;29;20209;-70
2023/03/05 07:21:35;;;;;;;6.13;3.33;;;2.70;50.40;;;;;;4917529;29;20640;-72
2023/03/05 07:24:08;;;;;;;4.77;2.90;;;3.00;49.70;;;;;;4916995;29;20286;-72
2023/03/05 07:26:37;;;;;;;7.00;3.47;;;2.90;49.30;;;;;;4917043;29;20254;-72
2023/03/05 07:29:05;;;;;;;5.13;3.60;;;3.10;49.20;;;;;;4917115;29;20709;-70
2023/03/05 07:31:34;;;;;;;3.80;2.87;;;3.50;48.80;;;;;;4916943;29;20262;-70
2023/03/05 07:34:05;;;;;;;3.97;2.50;;;3.80;48.40;;;;;;4917146;29;20249;-70
2023/03/05 07:36:36;;;;;;;3.00;2.60;;;4.10;47.70;;;;;;4917034;29;20643;-69
2023/03/05 07:39:05;;;;;;;4.33;2.67;;;4.40;47.20;;;;;;4916987;29;20214;-71
2023/03/05 07:41:34;;;;;;;5.13;3.30;;;4.50;46.70;;;;;;4916993;29;20212;-73
2023/03/05 07:44:03;;;;;;;6.13;3.70;;;4.80;46.60;;;;;;4916829;29;20278;-72
2023/03/05 07:46:33;;;;;;;7.50;4.50;;;4.90;46.00;;;;;;4916767;29;20606;-70
2023/03/05 07:49:02;;;;;;;5.90;4.20;;;5.10;46.30;;;;;;4917111;29;20219;-72
2023/03/05 07:51:31;;;;;;;6.17;3.37;;;5.00;46.20;;;;;;4905986;29;20199;-71
2023/03/05 07:54:02;;;;;;;3.90;2.57;;;4.80;46.50;;;;;;4900459;29;20246;-72
2023/03/05 07:56:34;;;;;;;5.07;2.73;;;4.60;46.80;;;;;;4916362;29;20225;-72
2023/03/05 07:59:05;;;;;;;3.97;2.63;;;4.50;46.80;;;;;;4916662;29;20279;-70
2023/03/05 08:01:35;;;;;;;2.50;2.30;;;4.60;46.60;;;;;;4912864;29;20204;-71
2023/03/05 08:04:05;;;;;;;2.37;2.13;;;5.20;46.50;;;;;;4897862;29;20261;-71
2023/03/05 08:06:37;;;;;;;2.10;1.90;;;5.30;45.40;;;;;;4909377;29;20214;-71
2023/03/05 08:09:07;;;;;;;2.10;2.00;;;5.80;44.50;;;;;;4916684;29;20570;-70
2023/03/05 08:11:36;;;;;;;2.10;1.90;;;5.90;43.50;;;;;;4915951;29;20677;-71
2023/03/05 08:14:05;;;;;;;4.77;2.20;;;5.50;43.90;;;;;;4914358;29;20196;-70
2023/03/05 08:16:34;;;;;;;5.13;2.87;;;5.30;44.20;;;;;;4916436;29;20227;-71
2023/03/05 08:19:03;;;;;;;5.10;3.23;;;5.10;44.00;;;;;;4916328;29;20202;-73
2023/03/05 08:21:33;;;;;;;4.20;2.47;;;5.50;44.20;;;;;;4909648;29;20211;-69
2023/03/05 08:24:05;;;;;;;2.53;2.33;;;5.20;44.50;;;;;;4915677;29;20249;-69
2023/03/05 08:26:37;;;;;;;3.37;2.60;;;4.80;44.90;;;;;;4915841;29;20293;-74
2023/03/05 08:29:07;;;;;;;3.00;2.70;;;4.70;44.90;;;;;;4898179;29;20211;-70
2023/03/05 08:31:37;;;;;;;2.50;2.30;;;4.80;44.80;;;;;;4915989;29;20213;-70
2023/03/05 08:34:07;;;;;;;2.70;2.10;;;4.90;44.00;;;;;;4898552;29;20304;-71
2023/03/05 08:36:36;;;;;;;4.17;2.03;;;5.00;43.40;;;;;;4915147;29;20206;-71
2023/03/05 08:39:07;;;;;;;2.37;2.17;;;5.20;43.20;;;;;;4915437;29;20201;-70
2023/03/05 08:41:37;;;;;;;3.40;1.97;;;5.60;43.00;;;;;;4915697;29;20570;-68
2023/03/05 08:44:06;;;;;;;5.57;2.27;;;5.60;42.30;;;;;;4915321;29;20573;-69
2023/03/05 08:46:35;;;;;;;3.10;2.17;;;5.60;42.40;;;;;;4916025;29;20226;-69
2023/03/05 08:49:06;;;;;;;2.77;1.80;;;5.60;42.00;;;;;;4915801;29;20193;-68
2023/03/05 08:51:35;;;;;;;2.17;1.97;;;5.50;41.80;;;;;;4914321;29;20213;-69
2023/03/05 08:54:06;;;;;;;3.23;2.00;;;5.30;41.30;;;;;;4915551;29;20234;-72
2023/03/05 08:56:37;;;;;;;2.67;2.00;;;5.00;41.60;;;;;;4915259;29;20249;-70
2023/03/05 08:59:07;;;;;;;3.80;2.20;;;5.10;42.30;;;;;;4919685;29;20279;-70
2023/03/05 09:01:36;;;;;;;2.47;2.30;;;5.10;43.20;;;;;;4919694;29;20203;-70
2023/03/05 09:04:05;;;;;;;2.23;2.07;;;5.00;42.70;;;;;;4919841;29;20292;-70
2023/03/05 09:06:38;;;;;;;2.20;2.00;;;5.10;42.70;;;;;;4919625;29;20205;-71
2023/03/05 09:09:08;;;;;;;2.13;1.93;;;5.00;42.70;;;;;;4919677;29;20233;-73
2023/03/05 09:11:38;;;;;;;2.13;1.93;;;4.80;43.20;;;;;;4902373;29;20216;-72
2023/03/05 09:14:08;;;;;;;3.27;2.80;;;4.90;43.50;;;;;;4919369;29;20237;-72
2023/03/05 09:16:39;;;;;;;4.93;2.00;;;5.00;43.30;;;;;;4919514;29;20297;-72
2023/03/05 09:19:11;;;;;;;1.93;1.83;;;5.00;43.30;;;;;;4919612;29;20196;-74
2023/03/05 09:21:39;;;;;;;2.60;2.40;;;5.00;43.30;;;;;;4924701;29;20316;-71
2023/03/05 09:24:10;;;;;;;3.00;2.70;;;5.20;44.20;;;;;;4918260;29;20232;-72
2023/03/05 09:26:41;;;;;;;2.43;2.20;;;5.30;44.80;;;;;;4899935;29;20222;-71
2023/03/05 09:29:11;;;;;;;2.97;2.43;;;5.40;44.80;;;;;;4934656;29;20228;-74
2023/03/05 09:31:42;;;;;;;2.50;2.30;;;5.50;45.00;;;;;;4927399;29;20299;-71
2023/03/05 09:34:12;;;;;;;3.57;2.10;;;5.30;44.60;;;;;;4919351;29;20222;-69
2023/03/05 09:36:41;;;;;;;4.70;2.03;;;5.30;44.80;;;;;;4919427;29;20555;-71
2023/03/05 09:39:09;;;;;;;2.27;2.07;;;5.30;44.80;;;;;;4919354;29;20204;-71
2023/03/05 09:42:02;;;;;;;2.80;2.10;;;5.20;44.40;;;;;;4919213;29;20581;-69
2023/03/05 09:44:38;;;;;;;3.33;2.40;;;4.90;44.80;;;;;;4919201;29;20197;-72
2023/03/05 09:47:24;;;;;;;4.23;2.30;;;5.10;45.00;;;;;;4919408;29;20667;-72
2023/03/05 09:49:59;;;;;;;5.90;3.00;;;5.10;44.70;;;;;;4919200;29;20602;-72
2023/03/05 09:52:37;;;;;;;2.53;2.33;;;5.30;44.60;;;;;;4919203;29;20205;-71
2023/03/05 09:55:13;;;;;;;3.00;2.67;;;5.70;44.00;;;;;;4918898;29;20197;-73
2023/03/05 09:57:48;;;;;;;2.03;1.93;;;5.60;43.40;;;;;;4918843;29;20225;-74
2023/03/05 10:00:32;;;;;;;5.17;3.37;;;6.10;42.30;;;;;;4918819;29;20220;-71
2023/03/05 10:03:06;;;;;;;2.10;2.00;;;7.40;41.50;;;;;;4902376;29;20211;-72
2023/03/05 10:05:51;;;;;;;3.70;2.37;;;8.50;39.30;;;;;;4918802;29;20205;-76
2023/03/05 10:08:27;;;;;;;5.17;3.40;;;7.40;39.60;;;;;;4918678;29;20606;-75
2023/03/05 10:10:56;;;;;;;5.17;2.50;;;8.10;41.10;;;;;;4918753;29;20215;-70
2023/03/05 10:13:30;;;;;;;6.40;5.70;;;8.20;40.20;;;;;;4918529;29;20239;-71
2023/03/05 10:16:11;;;;;;;3.83;3.20;;;10.10;39.20;;;;;;4918709;29;20221;-78
2023/03/05 10:18:46;;;;;;;6.60;4.13;;;12.60;36.10;;;;;;4899785;29;20209;-75
2023/03/05 10:21:21;;;;;;;4.87;2.73;;;13.50;32.80;;;;;;4899766;29;20193;-72
2023/03/05 10:24:03;;;;;;;3.43;3.13;;;14.40;31.90;;;;;;4899460;29;20284;-70
2023/03/05 10:26:47;;;;;;;4.17;2.50;;;16.10;31.10;;;;;;4899495;29;20209;-70
2023/03/05 10:29:48;;;;;;;1.83;1.70;;;14.90;30.40;;;;;;4898178;29;20213;-72
2023/03/05 10:32:28;;;;;;;2.60;2.20;;;13.10;31.00;;;;;;4858511;29;20219;-70
2023/03/05 10:35:19;;;;;;;4.93;2.87;;;12.30;32.50;;;;;;4860180;29;20385;-70
2023/03/05 10:38:16;;;;;;;2.40;2.20;;;11.60;33.80;;;;;;4859997;29;20231;-72
2023/03/05 10:40:46;;;;;;;3.67;3.37;;;9.80;35.50;;;;;;4860019;29;20589;-73
2023/03/05 10:43:26;;;;;;;3.83;3.53;;;10.50;36.90;;;;;;4859953;29;20224;-70
2023/03/05 10:45:58;;;;;;;3.63;2.90;;;13.40;34.00;;;;;;4859767;29;20202;-71
2023/03/05 10:48:37;;;;;;;3.97;2.83;;;15.30;30.50;;;;;;4859887;29;20200;-76
2023/03/05 10:51:15;;;;;;;2.87;2.00;;;15.40;29.90;;;;;;4859718;29;20202;-76
2023/03/05 10:53:55;;;;;;;3.57;2.37;;;13.00;30.60;;;;;;4859427;29;20341;-71
2023/03/05 10:56:25;;;;;;;2.40;2.20;;;11.60;31.90;;;;;;4826493;29;20664;-70
2023/03/05 10:58:55;;;;;;;3.40;2.90;;;10.20;33.40;;;;;;4841055;29;20216;-72
2023/03/05 11:01:26;;;;;;;2.63;2.13;;;11.40;35.20;;;;;;4841106;29;20213;-71
2023/03/05 11:03:57;;;;;;;1.97;1.80;;;12.00;33.50;;;;;;4840869;29;20581;-71
2023/03/05 11:06:33;;;;;;;3.07;2.40;;;11.20;34.30;;;;;;4841270;29;20230;-71
2023/03/05 11:09:25;;;;;;;3.40;2.50;;;8.90;36.40;;;;;;4863185;29;20211;-70
2023/03/05 11:12:16;;;;;;;3.30;2.70;;;7.90;38.80;;;;;;4898637;29;20582;-71
2023/03/05 11:14:47;;;;;;;2.53;2.07;;;7.50;40.40;;;;;;4898704;29;20227;-71
2023/03/05 11:17:33;;;;;;;3.50;2.20;;;8.20;40.20;;;;;;4898633;29;20281;-71
2023/03/05 11:20:34;;;;;;;2.93;2.50;;;7.70;39.30;;;;;;4898039;29;20210;-71
2023/03/05 11:23:06;;;;;;;3.43;2.77;;;6.90;39.70;;;;;;4893050;29;20211;-70
2023/03/05 11:25:36;;;;;;;3.53;2.67;;;6.50;40.30;;;;;;4898337;29;20220;-74
2023/03/05 11:28:05;;;;;;;5.20;2.60;;;5.90;41.00;;;;;;4897977;29;20638;-74
2023/03/05 11:30:37;;;;;;;5.93;2.77;;;6.40;41.20;;;;;;4916928;29;20263;-69
2023/03/05 11:33:14;;;;;;;3.87;2.30;;;5.90;41.50;;;;;;4915927;29;20211;-71
2023/03/05 11:35:46;;;;;;;2.57;2.37;;;5.90;42.20;;;;;;4931971;29;20230;-69
2023/03/05 11:38:20;;;;;;;3.73;3.07;;;5.90;42.40;;;;;;4931993;29;20268;-70
2023/03/05 11:40:51;;;;;;;4.70;4.23;;;6.10;42.70;;;;;;4917305;29;20197;-72
2023/03/05 11:43:23;;;;;;;3.63;2.50;;;10.20;39.80;;;;;;4917078;29;20278;-76
2023/03/05 11:45:54;;;;;;;3.10;2.10;;;13.40;33.70;;;;;;4917047;29;20205;-77
2023/03/05 11:48:28;;;;;;;2.80;2.60;;;14.70;31.30;;;;;;4917067;29;20206;-78
2023/03/05 11:51:00;;;;;;;2.20;2.00;;;16.30;29.60;;;;;;4931765;29;20203;-74
2023/03/05 11:53:32;;;;;;;3.90;2.40;;;16.70;28.30;;;;;;4916764;29;20202;-73
2023/03/05 11:56:07;;;;;;;2.27;1.70;;;17.90;27.60;;;;;;4917034;29;20257;-72
2023/03/05 11:58:41;;;;;;;2.07;1.87;;;15.50;27.60;;;;;;4931090;29;20562;-72
2023/03/05 12:01:16;;;;;;;3.77;2.67;;;13.40;30.00;;;;;;4916564;29;20202;-74
2023/03/05 12:03:47;;;;;;;6.27;4.23;;;15.00;29.60;;;;;;4916692;29;20204;-74
2023/03/05 12:06:23;;;;;;;5.43;3.50;;;16.20;28.00;;;;;;4916769;29;20202;-69
2023/03/05 12:08:55;;;;;;;2.80;1.93;;;16.60;27.80;;;;;;4916509;29;20206;-68
2023/03/05 12:11:28;;;;;;;2.50;2.13;;;18.30;26.90;;;;;;4916568;29;20208;-72
2023/03/05 12:14:02;;;;;;;3.57;2.30;;;16.00;26.80;;;;;;4916452;29;20288;-71
2023/03/05 12:16:37;;;;;;;4.33;3.10;;;15.50;27.60;;;;;;4916201;29;20198;-71
2023/03/05 12:19:29;;;;;;;3.47;2.93;;;13.30;29.30;;;;;;4916327;29;20206;-69
2023/03/05 12:21:59;;;;;;;4.33;2.93;;;11.80;31.40;;;;;;4916367;29;20219;-71
2023/03/05 12:24:37;;;;;;;3.30;2.80;;;10.80;32.50;;;;;;4915173;29;20741;-71
2023/03/05 12:27:13;;;;;;;4.63;2.77;;;10.00;33.80;;;;;;4915985;29;20202;-71
2023/03/05 12:29:46;;;;;;;5.30;2.60;;;9.40;34.50;;;;;;4899148;29;20203;-73
2023/03/05 12:32:57;;;;;;;3.07;2.77;;;9.00;35.40;;;;;;4915506;29;20610;-73
2023/03/05 12:35:35;;;;;;;2.47;2.27;;;9.20;35.30;;;;;;4915151;29;20222;-75
2023/03/05 12:38:30;;;;;;;3.07;2.40;;;9.60;35.00;;;;;;4916224;29;20225;-73
2023/03/05 12:41:33;;;;;;;2.13;1.93;;;12.30;33.00;;;;;;4916322;29;20210;-73
2023/03/05 12:44:22;;;;;;;2.20;2.00;;;16.70;29.50;;;;;;4916251;29;20294;-73
2023/03/05 12:47:18;;;;;;;3.10;2.23;;;19.40;26.50;;;;;;4916103;29;20219;-72
2023/03/05 12:49:48;;;;;;;3.13;2.30;;;21.70;25.20;;;;;;4916205;29;20698;-73
2023/03/05 12:52:26;;;;;;;2.73;1.90;;;21.10;24.20;;;;;;4915464;29;20730;-71
2023/03/05 12:55:19;;;;;;;3.87;2.13;;;19.70;24.60;;;;;;4905063;29;20320;-71
2023/03/05 12:57:52;;;;;;;2.97;1.50;;;20.60;24.40;;;;;;4896892;29;20547;-73
2023/03/05 13:00:27;;;;;;;3.60;1.40;;;19.80;24.30;;;;;;4897121;29;20293;-72
2023/03/05 13:02:58;;;;;;;2.97;1.90;;;19.20;25.10;;;;;;4897247;29;20673;-74
2023/03/05 13:05:31;;;;;;;4.53;2.00;;;20.00;25.80;;;;;;4896958;29;20254;-73
2023/03/05 13:08:21;;;;;;;3.57;2.20;;;19.90;25.60;;;;;;4897302;29;20214;-74
2023/03/05 13:10:53;;;;;;;2.83;2.10;;;21.70;24.70;;;;;;4897092;29;20267;-73
2023/03/05 13:13:26;;;;;;;4.23;1.90;;;22.60;23.30;;;;;;4897010;29;20222;-77
2023/03/05 13:15:56;;;;;;;4.27;2.17;;;22.20;23.80;;;;;;4911667;29;20251;-74
2023/03/05 13:18:27;;;;;;;4.07;2.87;;;19.80;24.10;;;;;;4898925;29;20283;-71
2023/03/05 13:21:05;;;;;;;5.67;3.07;;;21.50;24.00;;;;;;4898627;29;20207;-73